aviador You're here:

LFYR Decoded Metar

ROMORANTIN/PRUNI in FRANCE
Report Time2018-05-28 07:30:00
UTC Time2018-05-28 07:53:45
Flight Rules vfr VFR
WindVRB at 01 kt
Visibility9999 m
Phenomena:Shower Rain
Clouds:N/A
Expected CloudBase > 1,600 ft AGL from Temp-Dew spread
CeilingNone
Temp18°C (ISA +4)
Dew Point14°C (78% RH)
QNH1016 hPa
Density Alt814 ft
Elevation282 ft
Report Wrong Elevation
Raw Report
METAR LFYR 280730Z AUTO VRB01KT CAVOK 18/14 Q1016 TEMPO 4000 SHRA SCT040TCU=

Extra information for LFYR:More info

Metar Taf Metar & Taf Last 4 Metars F.Rules Stats Wind Profile Meteogram Temp Stats Airport Information Weather charts Add Link Nearby VenuesMetar ALERT Operation Metar Decoded Social comments